Time;durP1;ratioP1;P1;durP2;ratioP2;P2;SDS_P1;SDS_P2;PMS_P1;PMS_P2;Temp;Humidity;BMP_temperature;BMP_pressure;BME280_temperature;BME280_humidity;BME280_pressure;Samples;Min_cycle;Max_cycle;Signal;HPM_P1;HPM_P2
2021/07/20 00:00:10;;;;;;;15.75;10.30;;;;;;;23.79;66.35;98912.08;1782126;80;20988;-40
2021/07/20 00:02:45;;;;;;;14.07;9.85;;;;;;;23.74;66.44;98917.61;1782290;80;21003;-41
2021/07/20 00:05:15;;;;;;;16.62;10.23;;;;;;;23.73;66.52;98920.83;1782175;80;20893;-40
2021/07/20 00:07:42;;;;;;;17.90;10.55;;;;;;;23.72;66.58;98913.13;1782277;80;21511;-40
2021/07/20 00:10:13;;;;;;;13.05;10.00;;;;;;;23.70;66.52;98907.30;1782188;80;20956;-40
2021/07/20 00:12:40;;;;;;;17.77;9.63;;;;;;;23.70;66.49;98901.77;1781323;80;21123;-40
2021/07/20 00:15:09;;;;;;;12.35;9.65;;;;;;;23.73;66.42;98900.84;1782035;80;21576;-41
2021/07/20 00:17:39;;;;;;;15.50;10.57;;;;;;;23.76;66.36;98902.70;1782654;80;20977;-40
2021/07/20 00:20:07;;;;;;;14.03;9.58;;;;;;;23.76;66.35;98905.47;1782262;80;21000;-40
2021/07/20 00:22:34;;;;;;;14.95;10.93;;;;;;;23.75;66.22;98907.30;1782121;80;21021;-40
2021/07/20 00:25:00;;;;;;;13.83;9.48;;;;;;;23.67;66.24;98907.45;1782110;80;21137;-41
2021/07/20 00:27:27;;;;;;;11.97;9.55;;;;;;;23.60;66.57;98916.81;1782119;80;21522;-40
2021/07/20 00:29:53;;;;;;;13.72;9.75;;;;;;;23.60;66.71;98922.95;1782274;80;20945;-41
2021/07/20 00:32:20;;;;;;;14.05;10.15;;;;;;;23.64;66.76;98928.50;1782052;80;21016;-40
2021/07/20 00:34:47;;;;;;;15.08;10.10;;;;;;;23.63;67.04;98931.11;1782178;80;21569;-40
2021/07/20 00:37:15;;;;;;;12.82;10.00;;;;;;;23.61;67.05;98929.43;1782055;80;21123;-40
2021/07/20 00:39:41;;;;;;;13.78;9.40;;;;;;;23.56;67.23;98928.64;1781986;80;21000;-40
2021/07/20 00:42:08;;;;;;;13.75;9.63;;;;;;;23.58;67.07;98924.02;1782179;80;20989;-40
2021/07/20 00:44:35;;;;;;;13.05;9.10;;;;;;;23.64;66.92;98922.97;1781941;80;21029;-41
2021/07/20 00:47:03;;;;;;;12.82;9.35;;;;;;;23.69;66.73;98923.75;1782287;80;21522;-40
2021/07/20 00:49:30;;;;;;;10.78;9.48;;;;;;;23.72;66.58;98924.84;1782228;80;21103;-40
2021/07/20 00:51:56;;;;;;;14.90;10.18;;;;;;;23.73;66.40;98918.05;1781910;80;21006;-40
2021/07/20 00:54:24;;;;;;;14.38;9.93;;;;;;;23.73;66.35;98919.44;1782312;80;21514;-40
2021/07/20 00:56:52;;;;;;;14.07;9.48;;;;;;;23.71;66.30;98917.16;1782163;80;20985;-40
2021/07/20 00:59:19;;;;;;;13.90;9.20;;;;;;;23.70;66.21;98912.84;1782280;80;21506;-40
2021/07/20 01:01:47;;;;;;;15.28;8.65;;;;;;;23.73;66.02;98906.38;1745966;80;22085;-40
2021/07/20 01:04:15;;;;;;;13.55;9.20;;;;;;;23.75;65.76;98906.70;1751539;80;20960;-40
2021/07/20 01:06:42;;;;;;;13.70;9.83;;;;;;;23.73;65.75;98897.30;1782312;80;21020;-40
2021/07/20 01:09:10;;;;;;;13.95;8.90;;;;;;;23.69;65.73;98893.91;1782284;80;21499;-40
2021/07/20 01:11:38;;;;;;;11.40;8.83;;;;;;;23.64;65.75;98889.76;1781617;80;20974;-40
2021/07/20 01:14:06;;;;;;;11.03;8.85;;;;;;;23.62;65.76;98892.84;1782237;80;21176;-40
2021/07/20 01:16:34;;;;;;;11.05;8.55;;;;;;;23.61;65.76;98889.91;1781995;80;21053;-40
2021/07/20 01:19:04;;;;;;;11.93;9.48;;;;;;;23.64;65.82;98892.52;1782327;80;20925;-40
2021/07/20 01:21:35;;;;;;;13.50;9.88;;;;;;;23.65;65.84;98896.84;1782310;80;21079;-40
2021/07/20 01:24:09;;;;;;;15.17;10.17;;;;;;;23.61;65.80;98894.84;1782730;80;21044;-40
2021/07/20 01:26:36;;;;;;;13.58;9.85;;;;;;;23.55;65.92;98895.89;1743705;82;21140;-40
2021/07/20 01:29:04;;;;;;;14.93;10.20;;;;;;;23.47;66.14;98891.27;1782459;80;21028;-40
2021/07/20 01:31:36;;;;;;;13.48;10.60;;;;;;;23.47;66.26;98894.04;1782133;80;21016;-40
2021/07/20 01:34:05;;;;;;;19.52;11.03;;;;;;;23.51;66.31;98893.89;1781726;80;20973;-41
2021/07/20 01:36:32;;;;;;;14.73;11.53;;;;;;;23.53;66.36;98896.34;1782201;80;20993;-40
2021/07/20 01:39:03;;;;;;;12.93;10.32;;;;;;;23.51;66.36;98891.89;1782291;80;21964;-40
2021/07/20 01:41:32;;;;;;;17.27;10.90;;;;;;;23.47;66.53;98896.80;1782117;80;20960;-40
2021/07/20 01:44:08;;;;;;;14.30;10.30;;;;;;;23.39;66.63;98903.80;1782123;80;21008;-40
2021/07/20 01:46:37;;;;;;;13.72;10.10;;;;;;;23.33;66.65;98900.86;1781955;80;21084;-40
2021/07/20 01:49:07;;;;;;;14.07;9.90;;;;;;;23.29;66.70;98904.39;1782197;80;21045;-40
2021/07/20 01:51:35;;;;;;;14.50;10.75;;;;;;;23.28;66.76;98905.64;1782143;80;21084;-40
2021/07/20 01:54:05;;;;;;;13.83;9.68;;;;;;;23.27;66.80;98911.01;1752086;80;21527;-40
2021/07/20 01:56:33;;;;;;;18.80;9.95;;;;;;;23.26;66.64;98905.92;1782177;80;20993;-40
2021/07/20 01:58:59;;;;;;;17.15;9.78;;;;;;;23.26;66.42;98910.07;1782213;80;21526;-40
2021/07/20 02:01:44;;;;;;;13.60;9.33;;;;;;;23.24;66.34;98911.13;1780651;80;21830;-40
2021/07/20 02:04:39;;;;;;;9.90;8.78;;;;;;;23.24;66.24;98913.89;1780504;80;21145;-40
2021/07/20 02:09:40;;;;;;;13.45;9.35;;;;;;;23.28;66.23;98910.40;1782145;80;20988;-40
2021/07/20 02:12:14;;;;;;;14.10;10.45;;;;;;;23.27;66.38;98906.86;1782307;80;21479;-40
2021/07/20 02:15:01;;;;;;;15.68;9.73;;;;;;;23.23;66.38;98899.32;1782375;80;21594;-40
2021/07/20 02:17:33;;;;;;;11.93;9.35;;;;;;;23.19;66.42;98902.08;1738626;80;21066;-40
2021/07/20 02:20:10;;;;;;;18.98;9.30;;;;;;;23.19;66.43;98907.61;1782105;80;21032;-40
2021/07/20 02:22:42;;;;;;;15.35;9.45;;;;;;;23.23;66.32;98919.30;1779846;80;21521;-40
2021/07/20 02:25:10;;;;;;;13.75;9.93;;;;;;;23.24;66.37;98910.52;1782165;80;20982;-40
2021/07/20 02:27:37;;;;;;;13.68;10.50;;;;;;;23.24;66.42;98917.44;1734053;82;21577;-40
2021/07/20 02:30:09;;;;;;;14.90;10.50;;;;;;;23.23;66.47;98916.52;1715216;82;21049;-40
2021/07/20 02:32:37;;;;;;;13.60;10.05;;;;;;;23.20;66.51;98925.72;1747914;82;20917;-40
2021/07/20 02:35:19;;;;;;;12.70;9.18;;;;;;;23.20;66.47;98933.40;1741886;82;21068;-40
2021/07/20 02:37:48;;;;;;;13.03;9.60;;;;;;;23.18;66.39;98937.25;1743234;82;21010;-40
2021/07/20 02:40:15;;;;;;;15.77;10.33;;;;;;;23.20;66.48;98925.10;1743167;82;21073;-40
2021/07/20 02:42:43;;;;;;;13.08;9.53;;;;;;;23.20;66.36;98928.48;1743174;82;21735;-40
2021/07/20 02:45:13;;;;;;;14.38;10.00;;;;;;;23.16;66.34;98925.09;1742821;82;22161;-40
2021/07/20 02:47:40;;;;;;;15.13;10.78;;;;;;;23.11;66.51;98935.36;1712676;82;21471;-40
2021/07/20 02:50:11;;;;;;;15.80;9.05;;;;;;;23.08;66.66;98933.52;1742826;82;21033;-41
2021/07/20 02:52:43;;;;;;;11.25;9.13;;;;;;;23.05;66.66;98942.70;1743239;82;21029;-40
2021/07/20 02:55:12;;;;;;;13.00;9.20;;;;;;;23.02;66.72;98948.53;1742893;82;21814;-40
2021/07/20 02:57:41;;;;;;;12.15;9.80;;;;;;;23.04;66.86;98948.09;1743315;82;20965;-40
2021/07/20 03:00:09;;;;;;;11.85;9.90;;;;;;;23.05;66.89;98949.00;1714124;82;21077;-40
2021/07/20 03:02:47;;;;;;;12.93;9.85;;;;;;;23.04;66.87;98953.01;1743140;82;21024;-40
2021/07/20 03:05:17;;;;;;;12.65;9.13;;;;;;;22.92;67.06;98947.72;1742973;82;21033;-40
2021/07/20 03:07:50;;;;;;;;;;;;;;;22.86;67.27;98943.98;1739096;82;21092;-40
2021/07/20 03:10:16;;;;;;;11.45;10.25;;;;;;;22.77;67.63;98946.70;1742971;82;20156;-40
2021/07/20 03:12:45;;;;;;;14.90;10.72;;;;;;;22.57;68.46;98944.84;1743175;82;20976;-40
2021/07/20 03:15:14;;;;;;;14.47;12.07;;;;;;;22.54;68.91;98936.09;1718285;82;21487;-40
2021/07/20 03:17:46;;;;;;;13.28;10.95;;;;;;;22.58;69.33;98927.05;1741355;82;21002;-40
2021/07/20 03:20:13;;;;;;;13.45;10.15;;;;;;;22.67;69.07;98916.05;1713870;82;21126;-40
2021/07/20 03:22:42;;;;;;;12.53;10.90;;;;;;;22.73;68.92;98911.52;1742892;82;21079;-40
2021/07/20 03:25:12;;;;;;;16.40;11.43;;;;;;;22.78;68.99;98912.32;1742959;81;21550;-40
2021/07/20 03:27:42;;;;;;;14.28;11.93;;;;;;;22.83;69.07;98912.34;1747476;81;21072;-40
2021/07/20 03:30:11;;;;;;;;;;;;;;;22.86;69.03;98914.97;1764450;81;21068;-40
2021/07/20 03:32:44;;;;;;;15.03;12.10;;;;;;;22.92;68.86;98914.55;1771631;80;21792;-40
2021/07/20 03:35:09;;;;;;;16.50;12.07;;;;;;;22.91;68.91;98918.52;1742658;81;21041;-40
2021/07/20 03:37:36;;;;;;;13.23;11.37;;;;;;;23.03;68.72;98913.36;1743789;81;20997;-40
2021/07/20 03:40:05;;;;;;;17.57;12.80;;;;;;;23.10;68.54;98917.22;1771925;81;20933;-40
2021/07/20 03:42:34;;;;;;;16.12;12.73;;;;;;;23.13;68.42;98920.48;1772002;81;21006;-40
2021/07/20 03:45:03;;;;;;;15.23;12.40;;;;;;;23.17;68.32;98923.26;1743794;81;21126;-40
2021/07/20 03:47:30;;;;;;;15.60;12.07;;;;;;;23.19;68.17;98909.73;1771713;81;21008;-40
2021/07/20 03:49:57;;;;;;;14.58;11.43;;;;;;;23.23;68.15;98913.76;1771713;81;20973;-40
2021/07/20 03:52:25;;;;;;;16.97;12.60;;;;;;;23.32;68.04;98908.25;1771664;81;21026;-40
2021/07/20 03:54:52;;;;;;;14.35;11.93;;;;;;;23.38;67.92;98923.03;1772300;81;20933;-40
2021/07/20 03:57:20;;;;;;;16.67;12.33;;;;;;;23.42;67.92;98926.42;1771796;81;21135;-40
2021/07/20 03:59:48;;;;;;;15.00;11.57;;;;;;;23.43;67.89;98933.48;1772079;81;20975;-40
2021/07/20 04:02:31;;;;;;;14.98;11.73;;;;;;;23.46;67.95;98948.44;1767986;81;21072;-40
2021/07/20 04:05:00;;;;;;;13.58;11.48;;;;;;;23.54;67.81;98951.06;1771030;81;21510;-40
2021/07/20 04:07:28;;;;;;;15.93;12.03;;;;;;;23.61;67.52;98953.56;1771305;81;21002;-40
2021/07/20 04:10:04;;;;;;;15.95;12.53;;;;;;;23.60;67.61;98951.41;1770848;81;21782;-40
2021/07/20 04:12:48;;;;;;;18.23;12.33;;;;;;;23.55;67.53;98964.45;1747958;81;21005;-40
2021/07/20 04:15:34;;;;;;;14.87;12.63;;;;;;;23.45;67.73;98958.73;1771739;81;20875;-40
2021/07/20 04:18:03;;;;;;;15.15;12.05;;;;;;;23.35;68.19;98955.13;1770588;81;21468;-41
2021/07/20 04:20:30;;;;;;;14.03;11.57;;;;;;;23.40;68.08;98955.14;1772008;81;21029;-41
2021/07/20 04:22:56;;;;;;;13.60;11.97;;;;;;;23.39;68.02;98957.75;1771710;81;21107;-41
2021/07/20 04:25:24;;;;;;;16.00;12.88;;;;;;;23.36;68.02;98957.29;1771891;81;21103;-41
2021/07/20 04:27:52;;;;;;;14.35;11.68;;;;;;;23.35;68.33;98959.28;1771869;80;20930;-41
2021/07/20 04:30:19;;;;;;;13.15;11.55;;;;;;;23.40;68.18;98966.21;1773730;80;21515;-41
2021/07/20 04:32:48;;;;;;;15.78;12.47;;;;;;;23.42;68.19;98969.31;1773663;80;20989;-41
2021/07/20 04:35:17;;;;;;;16.32;13.22;;;;;;;23.42;67.93;98971.30;1773763;80;21819;-41
2021/07/20 04:37:48;;;;;;;15.63;13.88;;;;;;;23.42;68.02;98973.45;1772304;80;20981;-41
2021/07/20 04:40:17;;;;;;;16.70;13.68;;;;;;;23.44;68.06;98969.60;1773689;80;21013;-41
2021/07/20 04:42:46;;;;;;;14.90;11.75;;;;;;;23.51;67.89;98973.52;1773477;80;21032;-41
2021/07/20 04:45:14;;;;;;;16.12;13.28;;;;;;;23.55;67.56;98971.37;1773812;80;21015;-41
2021/07/20 04:47:43;;;;;;;16.20;13.10;;;;;;;23.50;67.79;98963.67;1772723;80;21135;-41
2021/07/20 04:50:20;;;;;;;21.25;12.95;;;;;;;23.49;67.98;98960.73;1772495;80;20961;-41
2021/07/20 04:52:48;;;;;;;17.40;13.10;;;;;;;23.54;68.29;98960.14;1773750;80;20887;-41
2021/07/20 04:55:14;;;;;;;14.68;12.10;;;;;;;23.62;67.71;98951.73;1773996;80;21036;-41
2021/07/20 04:57:42;;;;;;;16.27;12.63;;;;;;;23.68;67.76;98959.56;1774015;80;21517;-41
2021/07/20 05:00:10;;;;;;;15.30;11.95;;;;;;;23.75;67.46;98957.91;1773998;80;21543;-41
2021/07/20 05:02:41;;;;;;;14.40;12.60;;;;;;;23.83;67.33;98960.52;1752241;80;21515;-41
2021/07/20 05:05:10;;;;;;;16.00;13.00;;;;;;;23.93;67.22;98961.31;1773949;80;20946;-41
2021/07/20 05:07:38;;;;;;;17.55;12.98;;;;;;;23.99;67.10;98960.09;1713962;82;21045;-41
2021/07/20 05:10:06;;;;;;;15.23;12.18;;;;;;;24.04;66.78;98958.88;1774035;80;21017;-41
2021/07/20 05:12:35;;;;;;;15.63;12.30;;;;;;;24.09;66.24;98958.27;1772305;80;21124;-41
2021/07/20 05:15:05;;;;;;;14.38;12.70;;;;;;;24.13;66.22;98960.27;1776866;80;21040;-41
2021/07/20 05:17:35;;;;;;;15.08;11.90;;;;;;;24.18;66.21;98965.83;1773466;80;21000;-41
2021/07/20 05:20:08;;;;;;;13.88;11.50;;;;;;;24.23;66.13;98961.06;1773884;80;20933;-41
2021/07/20 05:22:39;;;;;;;17.60;11.68;;;;;;;24.28;65.67;98963.22;1770484;80;21033;-41
2021/07/20 05:25:08;;;;;;;13.05;11.65;;;;;;;24.31;65.26;98967.83;1773880;80;21534;-41
2021/07/20 05:27:41;;;;;;;14.20;11.93;;;;;;;24.33;65.37;98966.77;1773447;80;21016;-41
2021/07/20 05:30:10;;;;;;;16.30;12.20;;;;;;;24.38;65.46;98963.38;1773972;80;21272;-41
2021/07/20 05:32:43;;;;;;;13.05;11.57;;;;;;;24.46;65.64;98960.44;1773774;80;20961;-41
2021/07/20 05:35:15;;;;;;;15.28;11.38;;;;;;;24.55;65.38;98960.43;1773619;80;21543;-41
2021/07/20 05:37:43;;;;;;;14.45;11.48;;;;;;;24.64;64.91;98962.45;1751514;80;21061;-41
2021/07/20 05:40:15;;;;;;;13.35;10.40;;;;;;;24.77;64.83;98958.11;1773844;80;21012;-41
2021/07/20 05:42:43;;;;;;;18.25;10.85;;;;;;;24.92;64.65;98957.03;1774118;80;21083;-41
2021/07/20 05:45:14;;;;;;;15.90;11.12;;;;;;;25.04;63.88;98958.83;1772332;80;21060;-41
2021/07/20 05:47:43;;;;;;;13.80;10.93;;;;;;;25.15;63.96;98965.89;1773915;80;21653;-41
2021/07/20 05:50:11;;;;;;;19.23;11.22;;;;;;;25.25;63.48;98967.40;1774136;80;21280;-41
2021/07/20 05:53:00;;;;;;;11.60;10.38;;;;;;;25.34;63.20;98970.91;1773874;80;21538;-41
2021/07/20 05:55:30;;;;;;;14.25;11.18;;;;;;;25.40;62.76;98966.27;1773789;80;21008;-41
2021/07/20 05:57:58;;;;;;;13.70;10.50;;;;;;;25.50;62.19;98965.59;1773642;80;21408;-41
2021/07/20 06:00:28;;;;;;;12.18;9.83;;;;;;;25.59;62.32;98957.87;1773769;80;21045;-41
2021/07/20 06:02:57;;;;;;;13.53;10.03;;;;;;;25.69;61.95;98957.36;1772667;80;21087;-41
2021/07/20 06:05:27;;;;;;;15.28;10.23;;;;;;;25.79;61.63;98951.90;1750900;80;20981;-41
2021/07/20 06:07:54;;;;;;;11.85;10.15;;;;;;;25.85;61.37;98947.21;1774103;80;21027;-41
2021/07/20 06:10:21;;;;;;;12.47;10.28;;;;;;;25.95;61.16;98946.53;1773878;80;21653;-41
2021/07/20 06:12:50;;;;;;;12.07;10.17;;;;;;;26.04;60.75;98945.09;1774134;80;21012;-41
2021/07/20 06:15:17;;;;;;;13.22;10.10;;;;;;;26.13;60.71;98949.20;1773818;80;21097;-41
2021/07/20 06:17:45;;;;;;;14.15;9.70;;;;;;;26.18;60.69;98954.09;1773656;80;21044;-41
2021/07/20 06:20:13;;;;;;;11.57;10.28;;;;;;;26.20;59.85;98950.20;1774050;80;20993;-41
2021/07/20 06:22:52;;;;;;;11.88;10.53;;;;;;;26.24;60.00;98959.16;1773627;80;21022;-41
2021/07/20 06:25:21;;;;;;;11.30;9.48;;;;;;;26.32;60.09;98960.96;1773566;80;21072;-41
2021/07/20 06:27:49;;;;;;;13.58;9.35;;;;;;;26.39;59.25;98958.56;1774131;80;21116;-42
2021/07/20 06:30:18;;;;;;;11.18;9.30;;;;;;;26.44;59.71;98960.53;1782408;80;21072;-41
2021/07/20 06:32:45;;;;;;;11.60;9.57;;;;;;;26.51;59.72;98956.01;1754490;80;21060;-41
2021/07/20 06:35:14;;;;;;;11.28;9.93;;;;;;;26.57;59.04;98961.06;1782296;80;21025;-41
2021/07/20 06:37:44;;;;;;;12.43;9.73;;;;;;;26.63;58.61;98962.67;1782550;80;21025;-41
2021/07/20 06:40:15;;;;;;;10.75;9.55;;;;;;;26.69;58.69;98950.27;1782361;80;21103;-41
2021/07/20 06:42:42;;;;;;;13.85;9.70;;;;;;;26.76;58.37;98949.91;1782272;80;20961;-41
2021/07/20 06:45:10;;;;;;;11.45;9.78;;;;;;;26.81;58.27;98953.41;1754003;80;20985;-41
2021/07/20 06:47:39;;;;;;;12.15;9.15;;;;;;;26.89;57.80;98954.58;1782278;80;21017;-41
2021/07/20 06:50:09;;;;;;;10.45;9.35;;;;;;;26.94;57.61;98954.53;1782509;80;21033;-41
2021/07/20 06:52:37;;;;;;;16.07;9.43;;;;;;;26.97;57.34;98945.98;1781710;80;21499;-41
2021/07/20 06:55:06;;;;;;;10.93;9.23;;;;;;;27.07;57.72;98948.03;1782204;80;20969;-41
2021/07/20 06:57:33;;;;;;;11.97;9.43;;;;;;;27.14;57.32;98940.08;1754367;80;21020;-41
2021/07/20 06:59:59;;;;;;;12.47;9.50;;;;;;;27.21;56.76;98934.72;1782539;80;22259;-41
2021/07/20 07:02:26;;;;;;;11.22;9.58;;;;;;;27.25;56.60;98940.23;1782283;80;20985;-41
2021/07/20 07:04:58;;;;;;;10.78;8.88;;;;;;;27.35;56.67;98946.48;1782299;80;21124;-41
2021/07/20 07:07:25;;;;;;;12.60;9.33;;;;;;;27.44;56.28;98949.77;1782136;80;21498;-41
2021/07/20 07:09:51;;;;;;;13.13;9.28;;;;;;;27.50;55.75;98954.17;1782413;80;20988;-41
2021/07/20 07:12:18;;;;;;;11.43;9.55;;;;;;;27.55;56.03;98951.33;1782294;80;20941;-41
2021/07/20 07:14:46;;;;;;;11.03;9.25;;;;;;;27.57;56.28;98951.00;1782189;80;21001;-41
2021/07/20 07:17:13;;;;;;;12.60;8.75;;;;;;;27.64;55.98;98948.45;1754048;80;21506;-41
2021/07/20 07:19:40;;;;;;;10.25;8.38;;;;;;;27.74;55.78;98942.86;1782254;80;21017;-41
2021/07/20 07:22:06;;;;;;;10.98;8.93;;;;;;;27.87;55.18;98940.52;1782535;80;21043;-41
2021/07/20 07:24:34;;;;;;;10.48;9.03;;;;;;;27.99;54.35;98938.00;1782605;80;21005;-41
2021/07/20 07:27:01;;;;;;;11.45;9.58;;;;;;;28.10;54.63;98929.78;1782389;80;21535;-41
2021/07/20 07:29:28;;;;;;;10.55;9.10;;;;;;;28.22;54.38;98937.69;1777374;80;21131;-41
2021/07/20 07:31:55;;;;;;;12.30;8.85;;;;;;;28.34;54.20;98932.98;1773644;80;20930;-41
2021/07/20 07:34:23;;;;;;;10.93;8.68;;;;;;;28.42;53.21;98936.87;1773914;80;20977;-41
2021/07/20 07:36:51;;;;;;;10.93;8.90;;;;;;;28.53;52.87;98926.61;1773861;80;21014;-41
2021/07/20 07:39:22;;;;;;;13.03;9.20;;;;;;;28.67;52.87;98931.93;1773969;80;21049;-41
2021/07/20 07:41:49;;;;;;;11.70;9.25;;;;;;;28.82;51.90;98928.43;1773881;80;21154;-41
2021/07/20 07:44:16;;;;;;;11.93;9.78;;;;;;;28.94;51.56;98923.72;1773729;80;20954;-41
2021/07/20 07:46:44;;;;;;;12.70;8.93;;;;;;;29.00;51.41;98924.51;1751859;80;21519;-41
2021/07/20 07:49:11;;;;;;;10.20;8.33;;;;;;;29.09;51.48;98924.35;1773845;80;21053;-41
2021/07/20 07:51:40;;;;;;;13.38;9.20;;;;;;;29.24;50.76;98927.00;1773735;80;21507;-41
2021/07/20 07:54:08;;;;;;;9.65;8.25;;;;;;;29.37;50.17;98930.16;1774222;80;21116;-42
2021/07/20 07:56:34;;;;;;;10.95;8.93;;;;;;;29.50;49.53;98933.28;1773696;80;21006;-41
2021/07/20 07:59:01;;;;;;;9.20;8.20;;;;;;;29.61;48.72;98930.56;1773683;80;21008;-41
2021/07/20 08:01:28;;;;;;;13.15;9.10;;;;;;;29.64;49.13;98928.16;1751854;80;20962;-41
2021/07/20 08:03:55;;;;;;;11.15;9.15;;;;;;;29.65;49.52;98928.29;1773798;80;21522;-42
2021/07/20 08:06:25;;;;;;;11.03;8.85;;;;;;;29.66;49.26;98929.83;1750838;80;21141;-41
2021/07/20 08:08:55;;;;;;;12.03;8.63;;;;;;;29.64;49.24;98935.77;1773839;80;21044;-41
2021/07/20 08:11:22;;;;;;;11.78;8.73;;;;;;;29.65;49.39;98938.07;1773841;80;21558;-41
2021/07/20 08:13:49;;;;;;;9.68;8.68;;;;;;;29.69;48.81;98944.19;1751788;80;20953;-41
2021/07/20 08:16:16;;;;;;;10.28;8.43;;;;;;;29.73;48.66;98942.55;1773825;80;21006;-41
2021/07/20 08:18:43;;;;;;;14.18;9.45;;;;;;;29.77;48.99;98937.51;1773987;80;21914;-41
2021/07/20 08:21:11;;;;;;;11.45;9.33;;;;;;;29.84;48.92;98936.25;1773943;80;20993;-41
2021/07/20 08:23:38;;;;;;;14.38;8.90;;;;;;;29.94;48.77;98937.60;1773854;80;20934;-41
2021/07/20 08:26:23;;;;;;;13.20;8.30;;;;;;;30.06;48.65;98943.39;1773836;80;21538;-41
2021/07/20 08:29:01;;;;;;;10.58;7.70;;;;;;;30.22;47.99;98946.23;1774636;80;21041;-42
2021/07/20 08:31:31;;;;;;;10.80;8.58;;;;;;;30.41;47.23;98942.34;1779510;80;21135;-42
2021/07/20 08:33:59;;;;;;;11.30;8.63;;;;;;;30.57;46.75;98933.89;1779505;80;21086;-41
2021/07/20 08:36:27;;;;;;;12.13;8.58;;;;;;;30.73;46.44;98932.39;1779595;80;20981;-41
2021/07/20 08:38:54;;;;;;;12.98;8.93;;;;;;;30.87;45.49;98935.58;1779805;80;21559;-42
2021/07/20 08:44:28;;;;;;;12.78;8.58;;;;;;;31.12;45.68;98923.40;1774600;79;22769;-41
2021/07/20 08:47:16;;;;;;;;;;;;;;;31.16;46.00;98926.70;1737620;81;21027;-41
2021/07/20 08:50:01;;;;;;;10.90;8.30;;;;;;;31.31;45.89;98925.03;1757041;81;21141;-41
2021/07/20 08:52:37;;;;;;;11.30;8.55;;;;;;;31.16;45.85;98926.70;1756638;81;20985;-41
2021/07/20 08:55:26;;;;;;;9.40;8.40;;;;;;;31.06;45.65;98918.43;1756746;81;20972;-41
2021/07/20 08:58:01;;;;;;;12.47;8.55;;;;;;;30.91;46.05;98918.66;1721758;81;20988;-41
2021/07/20 09:00:41;;;;;;;16.05;8.93;;;;;;;30.79;45.96;98922.70;1757118;81;20992;-41
2021/07/20 09:03:37;;;;;;;10.50;9.10;;;;;;;30.70;46.33;98912.40;1755940;81;21585;-41
2021/07/20 09:06:43;;;;;;;12.93;8.78;;;;;;;30.61;46.73;98914.18;1756800;81;21011;-41
2021/07/20 09:09:23;;;;;;;12.00;8.38;;;;;;;30.51;47.09;98910.09;1756956;81;20906;-41
2021/07/20 09:12:04;;;;;;;11.68;9.00;;;;;;;30.52;46.87;98905.27;1757108;81;20909;-41
2021/07/20 09:14:58;;;;;;;10.95;8.38;;;;;;;30.59;47.06;98906.17;1756990;81;21040;-41
2021/07/20 09:17:48;;;;;;;10.95;7.97;;;;;;;30.65;46.68;98904.89;1756836;81;21146;-41
2021/07/20 09:20:22;;;;;;;13.78;8.65;;;;;;;30.71;45.89;98903.50;1756874;81;21011;-41
2021/07/20 09:23:09;;;;;;;10.82;8.53;;;;;;;30.77;45.98;98906.31;1756785;81;20940;-41
2021/07/20 09:25:47;;;;;;;9.40;8.05;;;;;;;30.76;46.53;98904.14;1756655;81;20971;-41
2021/07/20 09:28:31;;;;;;;12.43;8.63;;;;;;;30.80;46.75;98894.09;1749320;81;21024;-41
2021/07/20 09:30:58;;;;;;;10.05;8.45;;;;;;;30.96;47.55;98892.70;1766152;80;21787;-41
2021/07/20 09:34:05;;;;;;;10.58;8.55;;;;;;;31.10;45.76;98890.93;1788002;80;20993;-41
2021/07/20 09:36:56;;;;;;;13.13;8.18;;;;;;;31.22;45.94;98893.09;1721347;80;21614;-42
2021/07/20 09:40:18;;;;;;;10.90;8.03;;;;;;;31.38;45.99;98886.04;1788272;80;21016;-41
2021/07/20 09:43:07;;;;;;;9.73;8.35;;;;;;;31.50;44.60;98885.38;1781634;80;21017;-41
2021/07/20 09:45:42;;;;;;;9.85;8.53;;;;;;;31.53;43.92;98880.78;1774627;80;21141;-41
2021/07/20 09:48:34;;;;;;;10.32;8.75;;;;;;;31.45;44.39;98875.72;1774149;80;21072;-42
2021/07/20 09:51:44;;;;;;;11.78;9.20;;;;;;;31.54;43.88;98873.91;1774740;80;20984;-41
2021/07/20 09:54:42;;;;;;;9.50;7.97;;;;;;;31.71;44.02;98869.78;1774371;80;21010;-41
2021/07/20 09:57:38;;;;;;;12.15;7.65;;;;;;;31.85;43.08;98862.36;1774041;80;21033;-41
2021/07/20 10:00:21;;;;;;;8.15;7.35;;;;;;;31.96;42.54;98864.32;1773790;80;21143;-41
2021/07/20 10:03:09;;;;;;;8.10;7.30;;;;;;;32.12;41.79;98860.06;1773269;80;21033;-41
2021/07/20 10:05:59;;;;;;;10.82;8.78;;;;;;;32.35;42.66;98855.84;1774071;80;21625;-41
2021/07/20 10:08:50;;;;;;;9.18;7.90;;;;;;;32.50;42.50;98854.08;1773802;80;21037;-41
2021/07/20 10:11:31;;;;;;;12.40;8.08;;;;;;;32.49;42.14;98848.97;1773942;80;21044;-41
2021/07/20 10:14:32;;;;;;;9.78;7.65;;;;;;;32.49;41.58;98846.17;1737536;80;21326;-41
2021/07/20 10:17:30;;;;;;;9.35;7.40;;;;;;;32.48;41.13;98843.27;1773919;80;20910;-42
2021/07/20 10:20:10;;;;;;;8.98;7.35;;;;;;;32.40;41.47;98844.45;1658980;86;21584;-42
2021/07/20 10:22:57;;;;;;;9.93;7.42;;;;;;;32.27;40.97;98842.89;1752719;80;21016;-42
2021/07/20 10:25:44;;;;;;;10.40;8.35;;;;;;;32.18;41.45;98845.38;1773940;80;20977;-42
2021/07/20 10:28:25;;;;;;;8.95;7.50;;;;;;;32.11;41.47;98847.32;1774103;80;21105;-42
2021/07/20 10:31:03;;;;;;;8.60;7.67;;;;;;;32.04;41.49;98844.29;1773902;80;21558;-42
2021/07/20 10:33:35;;;;;;;10.80;8.23;;;;;;;31.99;42.47;98845.08;1774277;80;20921;-42
2021/07/20 10:36:22;;;;;;;10.78;7.83;;;;;;;32.07;42.18;98852.42;1773948;80;21025;-42
2021/07/20 10:38:55;;;;;;;10.05;8.00;;;;;;;32.05;42.58;98840.95;1774082;80;21091;-42
2021/07/20 10:41:25;;;;;;;9.23;8.30;;;;;;;32.04;42.43;98846.45;1767017;80;21169;-42
2021/07/20 10:44:01;;;;;;;11.35;7.17;;;;;;;31.97;42.56;98847.63;1742393;81;21090;-42
2021/07/20 10:46:30;;;;;;;10.65;7.85;;;;;;;31.90;42.65;98848.29;1766562;81;21079;-42
2021/07/20 10:49:23;;;;;;;8.30;7.15;;;;;;;31.82;42.12;98846.55;1766887;81;21057;-42
2021/07/20 10:51:49;;;;;;;10.38;7.75;;;;;;;31.67;41.84;98841.27;1767002;81;20934;-42
2021/07/20 10:54:29;;;;;;;8.45;7.25;;;;;;;31.44;42.19;98843.37;1766910;81;21213;-42
2021/07/20 10:56:59;;;;;;;7.87;7.08;;;;;;;31.28;42.26;98841.38;1766803;81;20998;-42
2021/07/20 10:59:48;;;;;;;10.50;8.80;;;;;;;31.11;42.40;98853.89;1766862;81;20938;-42
2021/07/20 11:02:33;;;;;;;9.85;7.78;;;;;;;30.92;44.35;98854.41;1761948;81;21077;-41
2021/07/20 11:05:08;;;;;;;8.73;7.80;;;;;;;30.71;44.98;98854.53;1766787;81;20998;-41
2021/07/20 11:07:46;;;;;;;9.80;7.85;;;;;;;30.53;45.57;98863.44;1766560;81;21182;-42
2021/07/20 11:10:33;;;;;;;8.83;7.92;;;;;;;30.41;46.80;98855.63;1739181;81;21017;-42
2021/07/20 11:13:07;;;;;;;11.50;8.15;;;;;;;30.35;46.76;98853.48;1766929;81;20930;-42
2021/07/20 11:15:35;;;;;;;10.23;8.05;;;;;;;30.31;46.78;98847.34;1766864;81;21112;-41
2021/07/20 11:18:14;;;;;;;11.93;8.48;;;;;;;30.27;46.38;98851.03;1738885;81;21041;-41
2021/07/20 11:20:42;;;;;;;9.25;8.20;;;;;;;30.23;46.52;98847.72;1766703;81;21566;-42
2021/07/20 11:23:09;;;;;;;12.53;7.78;;;;;;;30.21;46.92;98845.42;1766666;81;21026;-42
2021/07/20 11:25:38;;;;;;;11.15;8.00;;;;;;;30.25;46.25;98845.20;1739160;81;21060;-42
2021/07/20 11:28:05;;;;;;;9.23;7.30;;;;;;;30.23;46.27;98843.53;1767215;81;21033;-42
2021/07/20 11:30:34;;;;;;;9.98;8.18;;;;;;;30.19;46.62;98833.23;1766810;81;21717;-42
2021/07/20 11:33:05;;;;;;;8.50;7.60;;;;;;;30.20;46.74;98826.38;1766921;81;21835;-42
2021/07/20 11:35:36;;;;;;;9.90;8.20;;;;;;;30.23;46.14;98824.72;1766755;81;21771;-42
2021/07/20 11:38:09;;;;;;;13.08;8.15;;;;;;;30.25;46.68;98824.22;1766692;81;21009;-42
2021/07/20 11:41:06;;;;;;;9.60;8.60;;;;;;;30.26;47.10;98827.79;1766717;81;21029;-41
2021/07/20 11:44:01;;;;;;;9.53;8.08;;;;;;;30.24;47.55;98824.09;1774893;80;20969;-42
2021/07/20 11:46:29;;;;;;;10.77;8.13;;;;;;;30.24;47.44;98817.10;1781818;80;21798;-42
2021/07/20 11:49:07;;;;;;;9.20;7.85;;;;;;;30.25;47.63;98814.44;1782363;80;21510;-42
2021/07/20 11:51:50;;;;;;;9.38;7.95;;;;;;;30.25;47.01;98806.05;1782759;80;21506;-41
2021/07/20 11:55:07;;;;;;;10.03;7.80;;;;;;;30.25;47.12;98803.25;1753858;80;21088;-42